Sea Island, GA

4:46 PM EDT on August 27, 2016 (GMT -0400)
Cottages at Musgrove | | Change Station

Elev 49 ft 31.21 °N, 81.37 °W | Updated 10 minutes ago

Rain
Rain Mist
81.9 °F
Feels Like 90 °F
N
1.7
Wind Variable Wind from NNE

Today
High -- | Low -- °F
--% Chance of Precip.
Yesterday
High -- | Low -- °F
Precip. -- in
Pressure 30.02 in
Visibility 3.0 miles
Clouds Few 1500 ft
Mostly Cloudy 3000 ft
Overcast 3600 ft
Heat Index 90 °F
Dew Point 78 °F
Humidity 87%
Rainfall 0.27 in
Snow Depth Not available.
6:58 AM 7:54 PM
Waning Crescent, 21% visible
SPECI KSSI 271959Z AUTO 07008KT 3SM RA BR FEW015 BKN030 OVC036 27/24 A3002 RMK AO2 P0001 T02670244 $
Pressure 30.02 in
Visibility 3.0 miles
Clouds Few 1500 ft
Mostly Cloudy 3000 ft
Overcast 3600 ft
Heat Index 90 °F
Dew Point 78 °F
Humidity 87%
Rainfall 0.27 in
Snow Depth Not available.
6:58 AM 7:54 PM
Waning Crescent, 21% visible
SPECI KSSI 271959Z AUTO 07008KT 3SM RA BR FEW015 BKN030 OVC036 27/24 A3002 RMK AO2 P0001 T02670244 $

10-Day Weather Forecast

Almanac

Astronomy

Aug. 27, 2016 Rise Set
Actual Time
Civil Twilight
Nautical Twilight
Astronomical Twilight
Moon
Length of Visible Light
Length of Day
Tomorrow will be .
, % of the Moon is Illuminated

Today's Extremes

State Highs State Lows

Community

WunderPhotos

Upload Photos

1,935,438 photos uploaded!

WunderBlog® & News

Nearby

Air Quality

  Air Quality AQ Index Pollutant
Not available.

Snow Depth

Station Depth Elevation

Earthquake Activity

City Distance Mag. Time & Date
Minimum magnitude displayed is 2.5.

Coastal Water Temperatures

Place Temperature

Stations

Nearby Weather Stations

Station Location Temp. Windchill Dew Point Humidity Wind Precip. Elev Updated Type
                   

Watches & Warnings

There are currently no watches in effect.